sensor_id;sensor_type;location;lat;lon;timestamp;P1;durP1;ratioP1;P2;durP2;ratioP2
66559;SDS011;53413;49.878;8.142;2023-10-08T00:01:34;8.32;;;3.28;;
66559;SDS011;53413;49.878;8.142;2023-10-08T00:03:59;8.13;;;3.10;;
66559;SDS011;53413;49.878;8.142;2023-10-08T00:06:28;9.18;;;3.30;;
66559;SDS011;53413;49.878;8.142;2023-10-08T00:08:55;7.95;;;3.20;;
66559;SDS011;53413;49.878;8.142;2023-10-08T00:11:25;7.75;;;3.05;;
66559;SDS011;53413;49.878;8.142;2023-10-08T00:13:51;8.30;;;3.30;;
66559;SDS011;53413;49.878;8.142;2023-10-08T00:16:21;8.90;;;3.00;;
66559;SDS011;53413;49.878;8.142;2023-10-08T00:18:46;7.80;;;3.10;;
66559;SDS011;53413;49.878;8.142;2023-10-08T00:21:16;8.63;;;3.15;;
66559;SDS011;53413;49.878;8.142;2023-10-08T00:23:43;8.73;;;3.10;;
66559;SDS011;53413;49.878;8.142;2023-10-08T00:26:17;7.80;;;3.10;;
66559;SDS011;53413;49.878;8.142;2023-10-08T00:28:59;10.30;;;3.20;;
66559;SDS011;53413;49.878;8.142;2023-10-08T00:31:26;8.55;;;3.20;;
66559;SDS011;53413;49.878;8.142;2023-10-08T00:34:02;9.52;;;2.90;;
66559;SDS011;53413;49.878;8.142;2023-10-08T00:36:30;9.00;;;3.10;;
66559;SDS011;53413;49.878;8.142;2023-10-08T00:38:56;6.75;;;2.67;;
66559;SDS011;53413;49.878;8.142;2023-10-08T00:41:28;8.30;;;3.13;;
66559;SDS011;53413;49.878;8.142;2023-10-08T00:43:55;8.40;;;2.90;;
66559;SDS011;53413;49.878;8.142;2023-10-08T00:46:24;8.85;;;3.00;;
66559;SDS011;53413;49.878;8.142;2023-10-08T00:48:54;8.25;;;3.00;;
66559;SDS011;53413;49.878;8.142;2023-10-08T00:51:21;8.57;;;3.00;;
66559;SDS011;53413;49.878;8.142;2023-10-08T00:53:57;8.38;;;3.20;;
66559;SDS011;53413;49.878;8.142;2023-10-08T00:56:32;7.60;;;2.87;;
66559;SDS011;53413;49.878;8.142;2023-10-08T00:59:11;9.57;;;3.00;;
66559;SDS011;53413;49.878;8.142;2023-10-08T01:01:41;10.02;;;3.30;;
66559;SDS011;53413;49.878;8.142;2023-10-08T01:04:24;7.97;;;3.10;;
66559;SDS011;53413;49.878;8.142;2023-10-08T01:06:54;8.18;;;3.10;;
66559;SDS011;53413;49.878;8.142;2023-10-08T01:09:25;8.17;;;3.30;;
66559;SDS011;53413;49.878;8.142;2023-10-08T01:14:45;9.95;;;3.42;;
66559;SDS011;53413;49.878;8.142;2023-10-08T01:17:15;10.13;;;3.28;;
66559;SDS011;53413;49.878;8.142;2023-10-08T01:19:45;7.15;;;3.00;;
66559;SDS011;53413;49.878;8.142;2023-10-08T01:22:25;8.10;;;3.30;;
66559;SDS011;53413;49.878;8.142;2023-10-08T01:24:53;7.30;;;3.30;;
66559;SDS011;53413;49.878;8.142;2023-10-08T01:27:18;9.53;;;3.27;;
66559;SDS011;53413;49.878;8.142;2023-10-08T01:29:48;8.57;;;3.28;;
66559;SDS011;53413;49.878;8.142;2023-10-08T01:32:16;9.85;;;3.20;;
66559;SDS011;53413;49.878;8.142;2023-10-08T01:34:42;7.38;;;3.33;;
66559;SDS011;53413;49.878;8.142;2023-10-08T01:37:11;9.63;;;3.30;;
66559;SDS011;53413;49.878;8.142;2023-10-08T01:39:38;9.57;;;3.50;;
66559;SDS011;53413;49.878;8.142;2023-10-08T01:42:07;9.35;;;3.40;;
66559;SDS011;53413;49.878;8.142;2023-10-08T01:44:40;8.20;;;3.38;;
66559;SDS011;53413;49.878;8.142;2023-10-08T01:47:06;8.32;;;3.50;;
66559;SDS011;53413;49.878;8.142;2023-10-08T01:49:31;8.40;;;3.60;;
66559;SDS011;53413;49.878;8.142;2023-10-08T01:51:58;8.40;;;3.20;;
66559;SDS011;53413;49.878;8.142;2023-10-08T01:54:24;9.13;;;3.40;;
66559;SDS011;53413;49.878;8.142;2023-10-08T01:56:51;8.20;;;3.13;;
66559;SDS011;53413;49.878;8.142;2023-10-08T01:59:17;9.10;;;3.40;;
66559;SDS011;53413;49.878;8.142;2023-10-08T02:01:42;8.40;;;3.43;;
66559;SDS011;53413;49.878;8.142;2023-10-08T02:04:10;9.73;;;3.22;;
66559;SDS011;53413;49.878;8.142;2023-10-08T02:06:37;8.45;;;3.60;;
66559;SDS011;53413;49.878;8.142;2023-10-08T02:09:04;10.13;;;3.67;;
66559;SDS011;53413;49.878;8.142;2023-10-08T02:11:48;9.45;;;3.45;;
66559;SDS011;53413;49.878;8.142;2023-10-08T02:14:18;8.63;;;3.35;;
66559;SDS011;53413;49.878;8.142;2023-10-08T02:16:45;10.30;;;3.50;;
66559;SDS011;53413;49.878;8.142;2023-10-08T02:19:11;9.70;;;3.65;;
66559;SDS011;53413;49.878;8.142;2023-10-08T02:21:37;9.03;;;3.70;;
66559;SDS011;53413;49.878;8.142;2023-10-08T02:24:06;8.07;;;3.40;;
66559;SDS011;53413;49.878;8.142;2023-10-08T02:26:33;8.60;;;3.22;;
66559;SDS011;53413;49.878;8.142;2023-10-08T02:29:02;8.20;;;3.40;;
66559;SDS011;53413;49.878;8.142;2023-10-08T02:31:35;8.80;;;3.45;;
66559;SDS011;53413;49.878;8.142;2023-10-08T02:34:05;8.60;;;3.20;;
66559;SDS011;53413;49.878;8.142;2023-10-08T02:36:34;8.23;;;3.80;;
66559;SDS011;53413;49.878;8.142;2023-10-08T02:39:01;9.07;;;3.45;;
66559;SDS011;53413;49.878;8.142;2023-10-08T02:41:31;10.57;;;3.55;;
66559;SDS011;53413;49.878;8.142;2023-10-08T02:43:57;8.23;;;3.58;;
66559;SDS011;53413;49.878;8.142;2023-10-08T02:46:24;8.70;;;3.70;;
66559;SDS011;53413;49.878;8.142;2023-10-08T02:48:51;9.15;;;3.70;;
66559;SDS011;53413;49.878;8.142;2023-10-08T02:51:17;9.20;;;3.72;;
66559;SDS011;53413;49.878;8.142;2023-10-08T02:53:45;9.40;;;3.55;;
66559;SDS011;53413;49.878;8.142;2023-10-08T02:56:12;10.47;;;3.67;;
66559;SDS011;53413;49.878;8.142;2023-10-08T02:58:41;10.65;;;3.78;;
66559;SDS011;53413;49.878;8.142;2023-10-08T03:01:08;8.65;;;3.92;;
66559;SDS011;53413;49.878;8.142;2023-10-08T03:03:41;9.52;;;4.03;;
66559;SDS011;53413;49.878;8.142;2023-10-08T03:06:07;8.35;;;3.90;;
66559;SDS011;53413;49.878;8.142;2023-10-08T03:08:40;9.30;;;3.63;;
66559;SDS011;53413;49.878;8.142;2023-10-08T03:11:08;9.27;;;3.90;;
66559;SDS011;53413;49.878;8.142;2023-10-08T03:13:43;9.35;;;3.85;;
66559;SDS011;53413;49.878;8.142;2023-10-08T03:16:11;10.18;;;3.78;;
66559;SDS011;53413;49.878;8.142;2023-10-08T03:18:38;9.90;;;3.83;;
66559;SDS011;53413;49.878;8.142;2023-10-08T03:21:11;10.30;;;4.10;;
66559;SDS011;53413;49.878;8.142;2023-10-08T03:23:48;10.65;;;3.72;;
66559;SDS011;53413;49.878;8.142;2023-10-08T03:26:15;8.88;;;3.90;;
66559;SDS011;53413;49.878;8.142;2023-10-08T03:28:56;9.52;;;4.13;;
66559;SDS011;53413;49.878;8.142;2023-10-08T03:31:24;10.90;;;4.07;;
66559;SDS011;53413;49.878;8.142;2023-10-08T03:34:08;10.23;;;3.90;;
66559;SDS011;53413;49.878;8.142;2023-10-08T03:36:38;9.55;;;3.70;;
66559;SDS011;53413;49.878;8.142;2023-10-08T03:39:25;11.25;;;4.03;;
66559;SDS011;53413;49.878;8.142;2023-10-08T03:42:10;8.63;;;4.05;;
66559;SDS011;53413;49.878;8.142;2023-10-08T03:44:38;9.52;;;3.95;;
66559;SDS011;53413;49.878;8.142;2023-10-08T03:47:07;9.07;;;3.80;;
66559;SDS011;53413;49.878;8.142;2023-10-08T03:49:36;8.98;;;4.10;;
66559;SDS011;53413;49.878;8.142;2023-10-08T03:52:06;9.98;;;4.00;;
66559;SDS011;53413;49.878;8.142;2023-10-08T03:54:32;12.50;;;4.25;;
66559;SDS011;53413;49.878;8.142;2023-10-08T03:57:01;9.73;;;4.27;;
66559;SDS011;53413;49.878;8.142;2023-10-08T03:59:29;11.48;;;4.85;;
66559;SDS011;53413;49.878;8.142;2023-10-08T04:02:02;12.35;;;4.30;;
66559;SDS011;53413;49.878;8.142;2023-10-08T04:04:47;10.25;;;4.00;;
66559;SDS011;53413;49.878;8.142;2023-10-08T04:07:22;10.85;;;4.28;;
66559;SDS011;53413;49.878;8.142;2023-10-08T04:09:57;10.17;;;4.70;;
66559;SDS011;53413;49.878;8.142;2023-10-08T04:12:36;11.52;;;5.15;;
66559;SDS011;53413;49.878;8.142;2023-10-08T04:15:09;10.25;;;4.45;;
66559;SDS011;53413;49.878;8.142;2023-10-08T04:17:37;9.90;;;4.03;;
66559;SDS011;53413;49.878;8.142;2023-10-08T04:20:12;11.50;;;4.30;;
66559;SDS011;53413;49.878;8.142;2023-10-08T04:22:58;11.07;;;4.23;;
66559;SDS011;53413;49.878;8.142;2023-10-08T04:25:28;9.95;;;3.90;;
66559;SDS011;53413;49.878;8.142;2023-10-08T04:27:54;8.93;;;3.70;;
66559;SDS011;53413;49.878;8.142;2023-10-08T04:30:25;10.55;;;3.70;;
66559;SDS011;53413;49.878;8.142;2023-10-08T04:32:58;10.00;;;4.25;;
66559;SDS011;53413;49.878;8.142;2023-10-08T04:35:36;11.93;;;4.37;;
66559;SDS011;53413;49.878;8.142;2023-10-08T04:38:13;9.38;;;4.30;;
66559;SDS011;53413;49.878;8.142;2023-10-08T04:40:42;9.88;;;3.90;;
66559;SDS011;53413;49.878;8.142;2023-10-08T04:43:13;9.90;;;3.78;;
66559;SDS011;53413;49.878;8.142;2023-10-08T04:45:40;9.20;;;3.70;;
66559;SDS011;53413;49.878;8.142;2023-10-08T04:48:06;11.07;;;4.10;;
66559;SDS011;53413;49.878;8.142;2023-10-08T04:50:34;9.02;;;3.63;;
66559;SDS011;53413;49.878;8.142;2023-10-08T04:53:03;10.95;;;4.15;;
66559;SDS011;53413;49.878;8.142;2023-10-08T04:55:33;8.67;;;3.50;;
66559;SDS011;53413;49.878;8.142;2023-10-08T04:57:59;8.93;;;3.65;;
66559;SDS011;53413;49.878;8.142;2023-10-08T05:00:25;10.88;;;3.78;;
66559;SDS011;53413;49.878;8.142;2023-10-08T05:03:20;9.13;;;3.88;;
66559;SDS011;53413;49.878;8.142;2023-10-08T05:05:53;9.40;;;3.73;;
66559;SDS011;53413;49.878;8.142;2023-10-08T05:08:34;8.70;;;3.70;;
66559;SDS011;53413;49.878;8.142;2023-10-08T05:11:20;10.50;;;3.80;;
66559;SDS011;53413;49.878;8.142;2023-10-08T05:14:04;9.13;;;3.70;;
66559;SDS011;53413;49.878;8.142;2023-10-08T05:16:41;10.80;;;3.55;;
66559;SDS011;53413;49.878;8.142;2023-10-08T05:19:25;11.63;;;4.00;;
66559;SDS011;53413;49.878;8.142;2023-10-08T05:22:09;9.75;;;3.80;;
66559;SDS011;53413;49.878;8.142;2023-10-08T05:24:54;10.25;;;3.83;;
66559;SDS011;53413;49.878;8.142;2023-10-08T05:27:51;10.48;;;4.03;;
66559;SDS011;53413;49.878;8.142;2023-10-08T05:30:21;9.80;;;3.78;;
66559;SDS011;53413;49.878;8.142;2023-10-08T05:33:02;9.03;;;3.97;;
66559;SDS011;53413;49.878;8.142;2023-10-08T05:35:32;12.73;;;4.85;;
66559;SDS011;53413;49.878;8.142;2023-10-08T05:38:13;10.10;;;4.10;;
66559;SDS011;53413;49.878;8.142;2023-10-08T05:40:54;11.02;;;4.10;;
66559;SDS011;53413;49.878;8.142;2023-10-08T05:46:03;9.40;;;3.70;;
66559;SDS011;53413;49.878;8.142;2023-10-08T05:51:33;10.15;;;3.97;;
66559;SDS011;53413;49.878;8.142;2023-10-08T05:57:06;10.90;;;3.70;;
66559;SDS011;53413;49.878;8.142;2023-10-08T05:59:36;9.73;;;3.73;;
66559;SDS011;53413;49.878;8.142;2023-10-08T06:02:37;8.25;;;3.55;;
66559;SDS011;53413;49.878;8.142;2023-10-08T06:05:05;10.23;;;3.90;;
66559;SDS011;53413;49.878;8.142;2023-10-08T06:10:19;9.18;;;3.58;;
66559;SDS011;53413;49.878;8.142;2023-10-08T06:13:10;9.05;;;3.20;;
66559;SDS011;53413;49.878;8.142;2023-10-08T06:16:09;7.53;;;3.50;;
66559;SDS011;53413;49.878;8.142;2023-10-08T06:18:38;7.90;;;3.40;;
66559;SDS011;53413;49.878;8.142;2023-10-08T06:21:04;10.93;;;3.53;;
66559;SDS011;53413;49.878;8.142;2023-10-08T06:23:34;10.57;;;3.63;;
66559;SDS011;53413;49.878;8.142;2023-10-08T06:26:01;9.13;;;3.58;;
66559;SDS011;53413;49.878;8.142;2023-10-08T06:28:31;9.25;;;3.60;;
66559;SDS011;53413;49.878;8.142;2023-10-08T06:31:00;8.73;;;3.63;;
66559;SDS011;53413;49.878;8.142;2023-10-08T06:33:27;9.95;;;3.80;;
66559;SDS011;53413;49.878;8.142;2023-10-08T06:35:58;8.80;;;3.80;;
66559;SDS011;53413;49.878;8.142;2023-10-08T06:38:30;10.40;;;3.90;;
66559;SDS011;53413;49.878;8.142;2023-10-08T06:41:03;10.57;;;3.63;;
66559;SDS011;53413;49.878;8.142;2023-10-08T06:43:39;9.20;;;4.10;;
66559;SDS011;53413;49.878;8.142;2023-10-08T06:46:13;9.85;;;3.80;;
66559;SDS011;53413;49.878;8.142;2023-10-08T06:48:40;10.80;;;3.70;;
66559;SDS011;53413;49.878;8.142;2023-10-08T06:51:08;10.95;;;3.67;;
66559;SDS011;53413;49.878;8.142;2023-10-08T06:53:41;8.02;;;3.30;;
66559;SDS011;53413;49.878;8.142;2023-10-08T06:56:07;8.35;;;3.40;;
66559;SDS011;53413;49.878;8.142;2023-10-08T06:58:36;8.07;;;3.67;;
66559;SDS011;53413;49.878;8.142;2023-10-08T07:01:02;9.17;;;3.40;;
66559;SDS011;53413;49.878;8.142;2023-10-08T07:03:33;8.38;;;3.67;;
66559;SDS011;53413;49.878;8.142;2023-10-08T07:05:59;11.20;;;3.27;;
66559;SDS011;53413;49.878;8.142;2023-10-08T07:08:28;7.70;;;3.30;;
66559;SDS011;53413;49.878;8.142;2023-10-08T07:10:56;8.25;;;3.40;;
66559;SDS011;53413;49.878;8.142;2023-10-08T07:13:24;8.90;;;3.63;;
66559;SDS011;53413;49.878;8.142;2023-10-08T07:15:50;10.47;;;3.70;;
66559;SDS011;53413;49.878;8.142;2023-10-08T07:18:16;8.85;;;3.50;;
66559;SDS011;53413;49.878;8.142;2023-10-08T07:20:52;9.18;;;3.25;;
66559;SDS011;53413;49.878;8.142;2023-10-08T07:23:22;9.60;;;3.15;;
66559;SDS011;53413;49.878;8.142;2023-10-08T07:25:53;8.40;;;3.27;;
66559;SDS011;53413;49.878;8.142;2023-10-08T07:28:22;9.05;;;3.30;;
66559;SDS011;53413;49.878;8.142;2023-10-08T07:30:50;7.55;;;3.33;;
66559;SDS011;53413;49.878;8.142;2023-10-08T07:33:17;8.27;;;3.00;;
66559;SDS011;53413;49.878;8.142;2023-10-08T07:35:46;7.50;;;3.00;;
66559;SDS011;53413;49.878;8.142;2023-10-08T07:38:36;8.40;;;3.08;;
66559;SDS011;53413;49.878;8.142;2023-10-08T07:41:07;8.77;;;3.25;;
66559;SDS011;53413;49.878;8.142;2023-10-08T07:43:42;7.63;;;3.10;;
66559;SDS011;53413;49.878;8.142;2023-10-08T07:46:09;7.57;;;3.17;;
66559;SDS011;53413;49.878;8.142;2023-10-08T07:48:35;7.80;;;3.00;;
66559;SDS011;53413;49.878;8.142;2023-10-08T07:51:01;7.30;;;3.13;;
66559;SDS011;53413;49.878;8.142;2023-10-08T07:53:27;8.75;;;3.28;;
66559;SDS011;53413;49.878;8.142;2023-10-08T07:56:03;8.95;;;3.28;;
66559;SDS011;53413;49.878;8.142;2023-10-08T07:58:31;7.68;;;3.40;;
66559;SDS011;53413;49.878;8.142;2023-10-08T08:01:02;8.38;;;3.40;;
66559;SDS011;53413;49.878;8.142;2023-10-08T08:03:31;7.78;;;3.03;;
66559;SDS011;53413;49.878;8.142;2023-10-08T08:05:56;9.73;;;3.27;;
66559;SDS011;53413;49.878;8.142;2023-10-08T08:08:23;10.98;;;3.50;;
66559;SDS011;53413;49.878;8.142;2023-10-08T08:10:52;7.82;;;3.38;;
66559;SDS011;53413;49.878;8.142;2023-10-08T08:13:23;8.95;;;3.28;;
66559;SDS011;53413;49.878;8.142;2023-10-08T08:15:52;7.05;;;3.13;;
66559;SDS011;53413;49.878;8.142;2023-10-08T08:18:23;8.43;;;3.30;;
66559;SDS011;53413;49.878;8.142;2023-10-08T08:20:49;7.63;;;3.30;;
66559;SDS011;53413;49.878;8.142;2023-10-08T08:23:14;7.17;;;3.20;;
66559;SDS011;53413;49.878;8.142;2023-10-08T08:25:41;8.48;;;3.25;;
66559;SDS011;53413;49.878;8.142;2023-10-08T08:28:11;9.15;;;3.25;;
66559;SDS011;53413;49.878;8.142;2023-10-08T08:30:45;7.90;;;3.30;;
66559;SDS011;53413;49.878;8.142;2023-10-08T08:33:13;7.70;;;3.10;;
66559;SDS011;53413;49.878;8.142;2023-10-08T08:35:46;9.57;;;3.23;;
66559;SDS011;53413;49.878;8.142;2023-10-08T08:38:12;8.73;;;3.30;;
66559;SDS011;53413;49.878;8.142;2023-10-08T08:40:38;8.63;;;3.27;;
66559;SDS011;53413;49.878;8.142;2023-10-08T08:43:04;8.57;;;3.40;;
66559;SDS011;53413;49.878;8.142;2023-10-08T08:45:30;8.27;;;3.40;;
66559;SDS011;53413;49.878;8.142;2023-10-08T08:47:58;7.05;;;2.92;;
66559;SDS011;53413;49.878;8.142;2023-10-08T08:50:24;7.57;;;3.20;;
66559;SDS011;53413;49.878;8.142;2023-10-08T08:52:51;8.00;;;2.95;;
66559;SDS011;53413;49.878;8.142;2023-10-08T08:55:17;8.60;;;3.35;;
66559;SDS011;53413;49.878;8.142;2023-10-08T08:57:44;8.15;;;3.17;;
66559;SDS011;53413;49.878;8.142;2023-10-08T09:00:12;7.93;;;3.30;;
66559;SDS011;53413;49.878;8.142;2023-10-08T09:02:39;9.68;;;3.65;;
66559;SDS011;53413;49.878;8.142;2023-10-08T09:05:05;8.43;;;3.30;;
66559;SDS011;53413;49.878;8.142;2023-10-08T09:07:59;7.75;;;3.13;;
66559;SDS011;53413;49.878;8.142;2023-10-08T09:10:30;8.20;;;3.40;;
66559;SDS011;53413;49.878;8.142;2023-10-08T09:13:02;7.88;;;3.28;;
66559;SDS011;53413;49.878;8.142;2023-10-08T09:15:29;10.40;;;3.30;;
66559;SDS011;53413;49.878;8.142;2023-10-08T09:17:55;8.63;;;3.33;;
66559;SDS011;53413;49.878;8.142;2023-10-08T09:20:24;8.00;;;3.13;;
66559;SDS011;53413;49.878;8.142;2023-10-08T09:23:07;10.90;;;4.05;;
66559;SDS011;53413;49.878;8.142;2023-10-08T09:25:36;19.17;;;5.32;;
66559;SDS011;53413;49.878;8.142;2023-10-08T09:28:02;13.25;;;5.00;;
66559;SDS011;53413;49.878;8.142;2023-10-08T09:30:32;7.80;;;3.35;;
66559;SDS011;53413;49.878;8.142;2023-10-08T09:33:02;8.65;;;3.03;;
66559;SDS011;53413;49.878;8.142;2023-10-08T09:35:29;8.47;;;3.40;;
66559;SDS011;53413;49.878;8.142;2023-10-08T09:37:57;6.82;;;3.25;;
66559;SDS011;53413;49.878;8.142;2023-10-08T09:40:22;7.75;;;2.85;;
66559;SDS011;53413;49.878;8.142;2023-10-08T09:42:50;9.95;;;3.20;;
66559;SDS011;53413;49.878;8.142;2023-10-08T09:45:17;7.43;;;3.20;;
66559;SDS011;53413;49.878;8.142;2023-10-08T09:47:45;7.47;;;3.38;;
66559;SDS011;53413;49.878;8.142;2023-10-08T09:50:17;9.15;;;3.40;;
66559;SDS011;53413;49.878;8.142;2023-10-08T09:55:32;7.35;;;3.30;;
66559;SDS011;53413;49.878;8.142;2023-10-08T09:57:58;11.38;;;3.30;;
66559;SDS011;53413;49.878;8.142;2023-10-08T10:00:24;8.73;;;3.42;;
66559;SDS011;53413;49.878;8.142;2023-10-08T10:02:59;8.38;;;3.40;;
66559;SDS011;53413;49.878;8.142;2023-10-08T10:05:34;8.13;;;3.10;;
66559;SDS011;53413;49.878;8.142;2023-10-08T10:08:03;7.50;;;3.13;;
66559;SDS011;53413;49.878;8.142;2023-10-08T10:10:35;7.13;;;3.20;;
66559;SDS011;53413;49.878;8.142;2023-10-08T10:13:03;8.10;;;3.10;;
66559;SDS011;53413;49.878;8.142;2023-10-08T10:15:33;8.98;;;3.30;;
66559;SDS011;53413;49.878;8.142;2023-10-08T10:20:57;6.85;;;3.20;;
66559;SDS011;53413;49.878;8.142;2023-10-08T10:23:47;7.88;;;3.40;;
66559;SDS011;53413;49.878;8.142;2023-10-08T10:31:41;7.60;;;3.17;;
66559;SDS011;53413;49.878;8.142;2023-10-08T10:34:10;9.23;;;3.38;;
66559;SDS011;53413;49.878;8.142;2023-10-08T10:36:37;9.13;;;3.67;;
66559;SDS011;53413;49.878;8.142;2023-10-08T10:39:05;7.85;;;3.55;;
66559;SDS011;53413;49.878;8.142;2023-10-08T10:41:52;6.95;;;3.03;;
66559;SDS011;53413;49.878;8.142;2023-10-08T10:44:26;9.23;;;3.37;;
66559;SDS011;53413;49.878;8.142;2023-10-08T10:46:54;8.77;;;3.22;;
66559;SDS011;53413;49.878;8.142;2023-10-08T10:49:39;8.68;;;3.22;;
66559;SDS011;53413;49.878;8.142;2023-10-08T10:52:24;7.78;;;3.20;;
66559;SDS011;53413;49.878;8.142;2023-10-08T10:55:12;7.82;;;3.30;;
66559;SDS011;53413;49.878;8.142;2023-10-08T10:57:40;8.67;;;3.20;;
66559;SDS011;53413;49.878;8.142;2023-10-08T11:00:19;8.55;;;3.50;;
66559;SDS011;53413;49.878;8.142;2023-10-08T11:03:00;8.15;;;3.40;;
66559;SDS011;53413;49.878;8.142;2023-10-08T11:05:29;7.43;;;3.35;;
66559;SDS011;53413;49.878;8.142;2023-10-08T11:07:56;11.43;;;4.38;;
66559;SDS011;53413;49.878;8.142;2023-10-08T11:10:33;8.57;;;3.27;;
66559;SDS011;53413;49.878;8.142;2023-10-08T11:13:03;7.95;;;3.40;;
66559;SDS011;53413;49.878;8.142;2023-10-08T11:15:30;9.18;;;3.17;;
66559;SDS011;53413;49.878;8.142;2023-10-08T11:18:11;9.90;;;3.53;;
66559;SDS011;53413;49.878;8.142;2023-10-08T11:20:38;8.63;;;3.70;;
66559;SDS011;53413;49.878;8.142;2023-10-08T11:23:07;10.17;;;3.43;;
66559;SDS011;53413;49.878;8.142;2023-10-08T11:25:54;11.13;;;3.17;;
66559;SDS011;53413;49.878;8.142;2023-10-08T11:28:20;9.60;;;3.30;;
66559;SDS011;53413;49.878;8.142;2023-10-08T11:30:47;10.17;;;3.70;;
66559;SDS011;53413;49.878;8.142;2023-10-08T11:33:16;8.35;;;3.55;;
66559;SDS011;53413;49.878;8.142;2023-10-08T11:38:26;9.32;;;3.65;;
66559;SDS011;53413;49.878;8.142;2023-10-08T11:40:52;8.77;;;3.50;;
66559;SDS011;53413;49.878;8.142;2023-10-08T11:43:24;10.13;;;3.47;;
66559;SDS011;53413;49.878;8.142;2023-10-08T11:45:50;9.00;;;3.80;;
66559;SDS011;53413;49.878;8.142;2023-10-08T11:48:16;8.27;;;3.50;;
66559;SDS011;53413;49.878;8.142;2023-10-08T11:50:50;8.13;;;3.50;;
66559;SDS011;53413;49.878;8.142;2023-10-08T11:53:16;9.05;;;3.53;;
66559;SDS011;53413;49.878;8.142;2023-10-08T11:55:44;9.07;;;3.43;;
66559;SDS011;53413;49.878;8.142;2023-10-08T11:58:10;8.00;;;3.58;;
66559;SDS011;53413;49.878;8.142;2023-10-08T12:00:36;8.38;;;3.50;;
66559;SDS011;53413;49.878;8.142;2023-10-08T12:03:09;9.02;;;3.80;;
66559;SDS011;53413;49.878;8.142;2023-10-08T12:05:38;8.45;;;3.50;;
66559;SDS011;53413;49.878;8.142;2023-10-08T12:08:12;9.50;;;3.35;;
66559;SDS011;53413;49.878;8.142;2023-10-08T12:10:39;10.85;;;3.83;;
66559;SDS011;53413;49.878;8.142;2023-10-08T12:13:06;7.47;;;3.20;;
66559;SDS011;53413;49.878;8.142;2023-10-08T12:15:31;8.77;;;3.42;;
66559;SDS011;53413;49.878;8.142;2023-10-08T12:18:03;8.57;;;3.38;;
66559;SDS011;53413;49.878;8.142;2023-10-08T12:20:49;10.27;;;3.37;;
66559;SDS011;53413;49.878;8.142;2023-10-08T12:23:16;9.27;;;3.35;;
66559;SDS011;53413;49.878;8.142;2023-10-08T12:25:51;10.13;;;3.40;;
66559;SDS011;53413;49.878;8.142;2023-10-08T12:28:18;10.38;;;3.40;;
66559;SDS011;53413;49.878;8.142;2023-10-08T12:30:44;10.23;;;3.20;;
66559;SDS011;53413;49.878;8.142;2023-10-08T12:33:10;8.63;;;3.50;;
66559;SDS011;53413;49.878;8.142;2023-10-08T12:35:40;8.98;;;3.30;;
66559;SDS011;53413;49.878;8.142;2023-10-08T12:38:05;9.75;;;3.20;;
66559;SDS011;53413;49.878;8.142;2023-10-08T12:40:31;9.13;;;3.23;;
66559;SDS011;53413;49.878;8.142;2023-10-08T12:43:15;10.63;;;4.00;;
66559;SDS011;53413;49.878;8.142;2023-10-08T12:45:53;10.38;;;3.33;;
66559;SDS011;53413;49.878;8.142;2023-10-08T12:48:26;10.68;;;3.50;;
66559;SDS011;53413;49.878;8.142;2023-10-08T12:50:53;10.50;;;3.47;;
66559;SDS011;53413;49.878;8.142;2023-10-08T12:53:28;6.72;;;3.30;;
66559;SDS011;53413;49.878;8.142;2023-10-08T12:56:04;10.50;;;3.50;;
66559;SDS011;53413;49.878;8.142;2023-10-08T12:58:40;12.45;;;3.55;;
66559;SDS011;53413;49.878;8.142;2023-10-08T13:01:09;9.82;;;3.20;;
66559;SDS011;53413;49.878;8.142;2023-10-08T13:03:36;8.93;;;3.30;;
66559;SDS011;53413;49.878;8.142;2023-10-08T13:06:12;9.85;;;3.40;;
66559;SDS011;53413;49.878;8.142;2023-10-08T13:08:50;9.18;;;3.63;;
66559;SDS011;53413;49.878;8.142;2023-10-08T13:11:17;8.93;;;3.45;;
66559;SDS011;53413;49.878;8.142;2023-10-08T13:13:47;10.02;;;3.30;;
66559;SDS011;53413;49.878;8.142;2023-10-08T13:16:16;10.70;;;3.38;;
66559;SDS011;53413;49.878;8.142;2023-10-08T13:18:42;9.40;;;3.38;;
66559;SDS011;53413;49.878;8.142;2023-10-08T13:21:09;13.80;;;3.70;;
66559;SDS011;53413;49.878;8.142;2023-10-08T13:23:35;12.17;;;3.53;;
66559;SDS011;53413;49.878;8.142;2023-10-08T13:26:01;12.30;;;3.67;;
66559;SDS011;53413;49.878;8.142;2023-10-08T13:28:31;9.98;;;3.60;;
66559;SDS011;53413;49.878;8.142;2023-10-08T13:31:01;9.85;;;3.40;;
66559;SDS011;53413;49.878;8.142;2023-10-08T13:33:35;9.80;;;3.75;;
66559;SDS011;53413;49.878;8.142;2023-10-08T13:36:05;9.97;;;3.60;;
66559;SDS011;53413;49.878;8.142;2023-10-08T13:38:35;9.43;;;3.50;;
66559;SDS011;53413;49.878;8.142;2023-10-08T13:41:01;10.23;;;3.72;;
66559;SDS011;53413;49.878;8.142;2023-10-08T13:43:28;8.50;;;3.22;;
66559;SDS011;53413;49.878;8.142;2023-10-08T13:46:01;9.77;;;3.35;;
66559;SDS011;53413;49.878;8.142;2023-10-08T13:48:32;8.40;;;3.53;;
66559;SDS011;53413;49.878;8.142;2023-10-08T13:51:04;9.68;;;3.47;;
66559;SDS011;53413;49.878;8.142;2023-10-08T13:53:33;9.00;;;3.60;;
66559;SDS011;53413;49.878;8.142;2023-10-08T13:56:01;12.98;;;3.67;;
66559;SDS011;53413;49.878;8.142;2023-10-08T13:58:29;9.25;;;3.50;;
66559;SDS011;53413;49.878;8.142;2023-10-08T14:01:05;10.20;;;3.40;;
66559;SDS011;53413;49.878;8.142;2023-10-08T14:03:43;8.60;;;3.10;;
66559;SDS011;53413;49.878;8.142;2023-10-08T14:06:09;8.90;;;3.30;;
66559;SDS011;53413;49.878;8.142;2023-10-08T14:08:35;11.20;;;3.63;;
66559;SDS011;53413;49.878;8.142;2023-10-08T14:11:01;7.47;;;3.13;;
66559;SDS011;53413;49.878;8.142;2023-10-08T14:13:30;12.38;;;3.28;;
66559;SDS011;53413;49.878;8.142;2023-10-08T14:15:57;10.32;;;3.50;;
66559;SDS011;53413;49.878;8.142;2023-10-08T14:18:24;12.35;;;3.60;;
66559;SDS011;53413;49.878;8.142;2023-10-08T14:20:53;9.57;;;3.17;;
66559;SDS011;53413;49.878;8.142;2023-10-08T14:23:20;10.63;;;3.72;;
66559;SDS011;53413;49.878;8.142;2023-10-08T14:25:48;10.05;;;3.35;;
66559;SDS011;53413;49.878;8.142;2023-10-08T14:28:16;10.25;;;3.17;;
66559;SDS011;53413;49.878;8.142;2023-10-08T14:30:48;11.32;;;3.10;;
66559;SDS011;53413;49.878;8.142;2023-10-08T14:33:19;8.45;;;3.35;;
66559;SDS011;53413;49.878;8.142;2023-10-08T14:35:50;9.10;;;3.40;;
66559;SDS011;53413;49.878;8.142;2023-10-08T14:38:34;8.25;;;3.40;;
66559;SDS011;53413;49.878;8.142;2023-10-08T14:41:18;8.60;;;3.08;;
66559;SDS011;53413;49.878;8.142;2023-10-08T14:44:16;11.30;;;3.00;;
66559;SDS011;53413;49.878;8.142;2023-10-08T14:46:41;10.20;;;3.20;;
66559;SDS011;53413;49.878;8.142;2023-10-08T14:49:06;9.43;;;3.60;;
66559;SDS011;53413;49.878;8.142;2023-10-08T14:51:34;12.35;;;3.50;;
66559;SDS011;53413;49.878;8.142;2023-10-08T14:54:00;11.23;;;3.80;;
66559;SDS011;53413;49.878;8.142;2023-10-08T14:56:26;12.95;;;3.20;;
66559;SDS011;53413;49.878;8.142;2023-10-08T14:58:55;8.90;;;3.20;;
66559;SDS011;53413;49.878;8.142;2023-10-08T15:01:20;9.18;;;3.20;;
66559;SDS011;53413;49.878;8.142;2023-10-08T15:03:48;9.33;;;2.80;;
66559;SDS011;53413;49.878;8.142;2023-10-08T15:06:13;8.60;;;3.13;;
66559;SDS011;53413;49.878;8.142;2023-10-08T15:08:38;8.70;;;3.23;;
66559;SDS011;53413;49.878;8.142;2023-10-08T15:11:04;14.17;;;3.87;;
66559;SDS011;53413;49.878;8.142;2023-10-08T15:13:31;9.07;;;3.60;;
66559;SDS011;53413;49.878;8.142;2023-10-08T15:15:58;8.98;;;3.30;;
66559;SDS011;53413;49.878;8.142;2023-10-08T15:18:25;9.68;;;3.20;;
66559;SDS011;53413;49.878;8.142;2023-10-08T15:20:56;11.18;;;3.25;;
66559;SDS011;53413;49.878;8.142;2023-10-08T15:23:22;10.73;;;3.50;;
66559;SDS011;53413;49.878;8.142;2023-10-08T15:25:50;9.57;;;3.20;;
66559;SDS011;53413;49.878;8.142;2023-10-08T15:28:16;11.00;;;3.33;;
66559;SDS011;53413;49.878;8.142;2023-10-08T15:30:41;8.67;;;2.90;;
66559;SDS011;53413;49.878;8.142;2023-10-08T15:33:07;10.37;;;3.07;;